Time;durP1;ratioP1;P1;durP2;ratioP2;P2;SDS_P1;SDS_P2;PMS_P1;PMS_P2;Temp;Humidity;BMP_temperature;BMP_pressure;BME280_temperature;BME280_humidity;BME280_pressure;Samples;Min_cycle;Max_cycle;Signal;HPM_P1;HPM_P2
2021/07/27 00:00:17;;;;;;;2.83;2.30;;;;;;;;;;5074430;28;20494;-57
2021/07/27 00:02:44;;;;;;;3.40;2.80;;;;;;;;;;5074334;28;21068;-57
2021/07/27 00:05:12;;;;;;;6.67;3.30;;;;;;;;;;5075410;28;20529;-57
2021/07/27 00:07:39;;;;;;;2.40;2.13;;;;;;;;;;5074446;28;20985;-58
2021/07/27 00:10:08;;;;;;;3.67;2.80;;;;;;;;;;5074310;28;20481;-57
2021/07/27 00:12:36;;;;;;;2.80;2.60;;;;;;;;;;5074291;28;20447;-57
2021/07/27 00:15:03;;;;;;;2.70;2.47;;;;;;;;;;5074140;28;20463;-57
2021/07/27 00:17:30;;;;;;;3.17;2.37;;;;;;;;;;5074739;28;20436;-57
2021/07/27 00:19:57;;;;;;;4.10;2.50;;;;;;;;;;5074148;28;20439;-58
2021/07/27 00:22:25;;;;;;;2.60;2.40;;;;;;;;;;5074120;28;20858;-58
2021/07/27 00:24:53;;;;;;;4.63;2.97;;;;;;;;;;5073987;28;20475;-58
2021/07/27 00:27:22;;;;;;;3.30;2.60;;;;;;;;;;5073863;28;20463;-58
2021/07/27 00:29:49;;;;;;;4.20;2.57;;;;;;;;;;5074915;28;20447;-58
2021/07/27 00:32:16;;;;;;;3.73;2.50;;;;;;;;;;5074215;28;20923;-57
2021/07/27 00:34:43;;;;;;;3.23;2.50;;;;;;;;;;5073642;28;20482;-57
2021/07/27 00:37:17;;;;;;;3.20;2.90;;;;;;;;;;5073829;28;20444;-57
2021/07/27 00:39:44;;;;;;;3.20;2.90;;;;;;;;;;5073859;28;20436;-57
2021/07/27 00:42:14;;;;;;;2.90;2.17;;;;;;;;;;5074185;28;20854;-57
2021/07/27 00:44:43;;;;;;;6.80;2.90;;;;;;;;;;5073660;28;20474;-57
2021/07/27 00:47:10;;;;;;;3.87;2.63;;;;;;;;;;5073648;28;20577;-57
2021/07/27 00:49:37;;;;;;;3.53;2.77;;;;;;;;;;5073716;28;20500;-58
2021/07/27 00:52:05;;;;;;;3.37;3.07;;;;;;;;;;5072961;28;20447;-57
2021/07/27 00:54:32;;;;;;;3.00;2.70;;;;;;;;;;5073283;28;20528;-57
2021/07/27 00:57:00;;;;;;;4.50;2.60;;;;;;;;;;5073737;28;20435;-57
2021/07/27 00:59:28;;;;;;;3.33;3.03;;;;;;;;;;5073297;28;20934;-58
2021/07/27 01:01:56;;;;;;;3.47;2.60;;;;;;;;;;5073565;28;20880;-57
2021/07/27 01:04:24;;;;;;;3.30;2.83;;;;;;;;;;5073346;28;20466;-57
2021/07/27 01:06:51;;;;;;;3.63;2.70;;;;;;;;;;5073184;28;20536;-57
2021/07/27 01:09:18;;;;;;;6.00;3.00;;;;;;;;;;5073243;28;20439;-57
2021/07/27 01:11:45;;;;;;;3.53;2.77;;;;;;;;;;5073163;28;20447;-57
2021/07/27 01:14:13;;;;;;;3.00;2.70;;;;;;;;;;5073446;28;20495;-58
2021/07/27 01:16:40;;;;;;;3.43;2.87;;;;;;;;;;5073564;28;20551;-57
2021/07/27 01:19:22;;;;;;;4.03;3.63;;;;;;;;;;5073131;28;20855;-57
2021/07/27 01:38:41;;;;;;;3.10;2.90;;;;;;;;;;5075088;28;20521;-58
2021/07/27 01:43:51;;;;;;;5.50;3.60;;;;;;;;;;5074405;28;20447;-57
2021/07/27 01:46:22;;;;;;;4.30;3.13;;;;;;;;;;5075498;28;21002;-58
2021/07/27 01:48:49;;;;;;;3.37;2.83;;;;;;;;;;5075235;28;20431;-58
2021/07/27 01:51:23;;;;;;;3.80;3.50;;;;;;;;;;5074637;28;20989;-57
2021/07/27 01:53:52;;;;;;;3.97;3.30;;;;;;;;;;5072978;28;20482;-58
2021/07/27 01:56:21;;;;;;;3.83;3.20;;;;;;;;;;5072510;28;20883;-58
2021/07/27 01:58:49;;;;;;;3.60;3.30;;;;;;;;;;5072939;28;20439;-57
2021/07/27 02:01:18;;;;;;;3.83;2.77;;;;;;;;;;5072520;28;20585;-58
2021/07/27 02:03:45;;;;;;;2.77;2.40;;;;;;;;;;5074222;28;20868;-59
2021/07/27 02:06:13;;;;;;;3.90;3.53;;;;;;;;;;5076197;28;20474;-58
2021/07/27 02:08:40;;;;;;;3.90;3.00;;;;;;;;;;5076645;28;20439;-58
2021/07/27 02:11:11;;;;;;;3.40;2.90;;;;;;;;;;5076499;28;20442;-58
2021/07/27 02:13:47;;;;;;;3.70;3.10;;;;;;;;;;5076508;28;20431;-58
2021/07/27 02:16:15;;;;;;;2.80;2.60;;;;;;;;;;5079050;28;20931;-57
2021/07/27 02:18:42;;;;;;;3.33;2.60;;;;;;;;;;5076442;28;20550;-57
2021/07/27 02:21:09;;;;;;;4.53;2.83;;;;;;;;;;5076025;28;20927;-57
2021/07/27 02:23:37;;;;;;;3.17;2.87;;;;;;;;;;5075897;28;20931;-57
2021/07/27 02:26:04;;;;;;;4.47;3.57;;;;;;;;;;5076076;28;20483;-57
2021/07/27 02:28:33;;;;;;;4.50;2.90;;;;;;;;;;5075833;28;21031;-57
2021/07/27 02:31:04;;;;;;;3.13;2.83;;;;;;;;;;5075741;28;20496;-57
2021/07/27 02:33:35;;;;;;;3.40;3.10;;;;;;;;;;5076332;28;20427;-57
2021/07/27 02:36:02;;;;;;;3.43;3.13;;;;;;;;;;5076201;28;20513;-57
2021/07/27 02:38:30;;;;;;;3.27;2.77;;;;;;;;;;5076133;28;20439;-58
2021/07/27 02:40:57;;;;;;;3.90;3.50;;;;;;;;;;5076232;28;20443;-57
2021/07/27 02:43:24;;;;;;;3.30;3.00;;;;;;;;;;5076111;28;20999;-57
2021/07/27 02:45:51;;;;;;;3.97;3.57;;;;;;;;;;5075648;28;20532;-57
2021/07/27 02:48:20;;;;;;;3.93;3.53;;;;;;;;;;5075925;28;20447;-57
2021/07/27 02:50:48;;;;;;;3.67;3.37;;;;;;;;;;5075813;28;20447;-57
2021/07/27 02:53:16;;;;;;;10.03;3.70;;;;;;;;;;5075974;28;20538;-58
2021/07/27 02:55:43;;;;;;;3.80;3.40;;;;;;;;;;5075485;28;20459;-57
2021/07/27 02:58:29;;;;;;;5.00;3.30;;;;;;;;;;5075472;28;20544;-58
2021/07/27 03:00:56;;;;;;;3.47;3.10;;;;;;;;;;5076455;28;20564;-56
2021/07/27 03:03:25;;;;;;;4.03;3.50;;;;;;;;;;5075187;28;20939;-57
2021/07/27 03:05:56;;;;;;;3.87;2.70;;;;;;;;;;5075315;28;20474;-56
2021/07/27 03:08:33;;;;;;;4.17;3.80;;;;;;;;;;5075490;28;20442;-57
2021/07/27 03:11:01;;;;;;;4.13;3.60;;;;;;;;;;5075400;28;20538;-58
2021/07/27 03:13:28;;;;;;;3.70;3.40;;;;;;;;;;5075310;28;20862;-57
2021/07/27 03:15:55;;;;;;;4.23;3.83;;;;;;;;;;5074842;28;20565;-58
2021/07/27 03:18:23;;;;;;;3.70;3.33;;;;;;;;;;5074909;28;20534;-57
2021/07/27 03:20:51;;;;;;;5.50;3.90;;;;;;;;;;5075215;28;20443;-57
2021/07/27 03:23:20;;;;;;;5.00;4.50;;;;;;;;;;5074868;28;20511;-57
2021/07/27 03:25:47;;;;;;;4.13;3.73;;;;;;;;;;5075059;28;20463;-58
2021/07/27 03:28:15;;;;;;;3.77;3.47;;;;;;;;;;5075102;28;20524;-58
2021/07/27 03:30:43;;;;;;;4.90;3.90;;;;;;;;;;5075049;28;20504;-57
2021/07/27 03:33:10;;;;;;;4.57;3.90;;;;;;;;;;5075437;28;20827;-57
2021/07/27 03:35:37;;;;;;;5.50;4.67;;;;;;;;;;5074659;28;20479;-57
2021/07/27 03:38:06;;;;;;;7.30;4.50;;;;;;;;;;5075095;28;20868;-58
2021/07/27 03:40:34;;;;;;;5.13;3.87;;;;;;;;;;5074850;28;20440;-57
2021/07/27 03:43:01;;;;;;;7.33;3.80;;;;;;;;;;5075718;28;20443;-56
2021/07/27 03:45:28;;;;;;;4.73;4.30;;;;;;;;;;5074384;28;20528;-58
2021/07/27 03:47:56;;;;;;;5.13;4.63;;;;;;;;;;5074669;28;20540;-57
2021/07/27 03:50:23;;;;;;;6.03;3.83;;;;;;;;;;5074496;28;20857;-57
2021/07/27 03:52:50;;;;;;;4.90;4.33;;;;;;;;;;5074477;28;20962;-59
2021/07/27 03:55:19;;;;;;;6.30;4.13;;;;;;;;;;5074626;28;20523;-57
2021/07/27 03:57:46;;;;;;;4.73;4.23;;;;;;;;;;5074498;28;20485;-57
2021/07/27 04:00:14;;;;;;;7.03;4.70;;;;;;;;;;5074232;28;20504;-55
2021/07/27 04:02:41;;;;;;;5.60;4.50;;;;;;;;;;5074486;28;20501;-57
2021/07/27 04:08:25;;;;;;;5.07;4.57;;;;;;;;;;5111740;27;20718;-58
2021/07/27 04:10:52;;;;;;;4.90;4.40;;;;;;;;;;5111250;28;20441;-57
2021/07/27 04:13:19;;;;;;;5.20;4.70;;;;;;;;;;5110833;28;20986;-55
2021/07/27 04:15:46;;;;;;;4.63;4.20;;;;;;;;;;5111078;28;20466;-58
2021/07/27 04:18:14;;;;;;;7.20;4.57;;;;;;;;;;5111209;28;20438;-58
2021/07/27 04:20:41;;;;;;;7.93;5.20;;;;;;;;;;5110950;28;20442;-58
2021/07/27 04:23:08;;;;;;;7.50;4.93;;;;;;;;;;5111127;28;20495;-58
2021/07/27 04:25:37;;;;;;;5.30;4.70;;;;;;;;;;5115912;28;20523;-58
2021/07/27 04:28:04;;;;;;;5.87;5.30;;;;;;;;;;5114231;28;20477;-58
2021/07/27 04:30:31;;;;;;;5.20;4.70;;;;;;;;;;5111010;28;20778;-58
2021/07/27 04:32:58;;;;;;;5.40;4.90;;;;;;;;;;5110764;28;20445;-58
2021/07/27 04:35:26;;;;;;;9.23;5.33;;;;;;;;;;5110586;28;20470;-58
2021/07/27 04:37:53;;;;;;;6.90;5.47;;;;;;;;;;5111336;28;20438;-58
2021/07/27 04:40:21;;;;;;;7.43;4.77;;;;;;;;;;5114350;28;20441;-58
2021/07/27 04:42:49;;;;;;;6.83;4.50;;;;;;;;;;5112914;28;20937;-58
2021/07/27 04:45:17;;;;;;;5.17;4.33;;;;;;;;;;5113786;28;20870;-58
2021/07/27 04:47:44;;;;;;;5.27;4.77;;;;;;;;;;5112340;28;20481;-57
2021/07/27 04:50:11;;;;;;;5.20;4.63;;;;;;;;;;5110672;28;20437;-58
2021/07/27 04:52:41;;;;;;;5.30;4.80;;;;;;;;;;5110148;28;20518;-58
2021/07/27 04:55:08;;;;;;;4.73;3.87;;;;;;;;;;5111717;28;21043;-60
2021/07/27 04:57:36;;;;;;;5.50;4.33;;;;;;;;;;5110529;28;20443;-58
2021/07/27 05:00:04;;;;;;;9.00;4.57;;;;;;;;;;5110600;28;20452;-58
2021/07/27 05:02:32;;;;;;;6.00;5.40;;;;;;;;;;5110327;28;20952;-58
2021/07/27 05:04:59;;;;;;;4.70;4.00;;;;;;;;;;5110709;28;20459;-58
2021/07/27 05:07:26;;;;;;;4.80;4.40;;;;;;;;;;5109679;28;20943;-58
2021/07/27 05:09:53;;;;;;;5.00;4.50;;;;;;;;;;5110226;28;20488;-58
2021/07/27 05:12:21;;;;;;;5.37;4.87;;;;;;;;;;5109921;28;20931;-58
2021/07/27 05:14:48;;;;;;;5.47;4.47;;;;;;;;;;5110140;28;20520;-58
2021/07/27 05:17:16;;;;;;;6.03;5.53;;;;;;;;;;5110012;28;20933;-58
2021/07/27 05:19:51;;;;;;;6.80;5.53;;;;;;;;;;5097320;28;20524;-57
2021/07/27 05:22:19;;;;;;;7.30;5.40;;;;;;;;;;5096682;28;20442;-58
2021/07/27 05:24:47;;;;;;;7.10;5.00;;;;;;;;;;5095992;28;20955;-57
2021/07/27 05:27:14;;;;;;;8.83;4.70;;;;;;;;;;5096540;28;20474;-57
2021/07/27 05:29:41;;;;;;;5.53;5.00;;;;;;;;;;5096203;28;20521;-57
2021/07/27 05:32:09;;;;;;;5.33;4.83;;;;;;;;;;5095850;28;20501;-59
2021/07/27 05:34:38;;;;;;;9.33;4.77;;;;;;;;;;5095897;28;20468;-58
2021/07/27 05:37:05;;;;;;;5.70;5.20;;;;;;;;;;5095719;28;20438;-58
2021/07/27 05:39:32;;;;;;;5.20;4.57;;;;;;;;;;5095844;28;20440;-58
2021/07/27 05:41:59;;;;;;;6.00;5.37;;;;;;;;;;5095625;28;20496;-59
2021/07/27 05:44:27;;;;;;;5.83;4.67;;;;;;;;;;5095237;28;20466;-59
2021/07/27 05:46:54;;;;;;;5.60;5.00;;;;;;;;;;5095801;28;20481;-58
2021/07/27 05:49:21;;;;;;;5.10;4.60;;;;;;;;;;5095719;28;20452;-58
2021/07/27 05:51:50;;;;;;;6.70;6.10;;;;;;;;;;5095769;28;20857;-57
2021/07/27 05:54:19;;;;;;;7.43;5.40;;;;;;;;;;5096339;28;20464;-59
2021/07/27 05:56:47;;;;;;;10.90;7.20;;;;;;;;;;5096032;28;20458;-59
2021/07/27 05:59:15;;;;;;;8.00;6.17;;;;;;;;;;5095594;28;20462;-58
2021/07/27 06:01:42;;;;;;;7.80;6.37;;;;;;;;;;5095654;28;20883;-59
2021/07/27 06:04:09;;;;;;;8.97;6.87;;;;;;;;;;5095694;28;21018;-58
2021/07/27 06:06:37;;;;;;;9.60;6.70;;;;;;;;;;5095354;28;20459;-59
2021/07/27 06:09:06;;;;;;;7.90;7.10;;;;;;;;;;5095352;28;20450;-59
2021/07/27 06:11:34;;;;;;;7.40;6.60;;;;;;;;;;5095582;28;20830;-57
2021/07/27 06:14:03;;;;;;;7.87;6.50;;;;;;;;;;5096195;28;20449;-58
2021/07/27 06:16:31;;;;;;;10.10;7.40;;;;;;;;;;5095574;28;20810;-57
2021/07/27 06:18:58;;;;;;;8.00;7.20;;;;;;;;;;5095366;28;20439;-58
2021/07/27 06:21:25;;;;;;;7.50;6.80;;;;;;;;;;5095348;28;20856;-58
2021/07/27 06:23:52;;;;;;;7.83;6.33;;;;;;;;;;5095067;28;20449;-57
2021/07/27 06:26:21;;;;;;;8.80;7.10;;;;;;;;;;5095144;28;20439;-57
2021/07/27 06:28:48;;;;;;;7.27;6.57;;;;;;;;;;5094714;28;20529;-58
2021/07/27 06:31:15;;;;;;;8.90;8.00;;;;;;;;;;5094081;28;20447;-59
2021/07/27 06:33:44;;;;;;;7.00;6.00;;;;;;;;;;5097143;28;20495;-58
2021/07/27 06:36:11;;;;;;;8.30;7.50;;;;;;;;;;5100283;28;20513;-59
2021/07/27 06:38:38;;;;;;;8.93;8.03;;;;;;;;;;5097291;28;20449;-59
2021/07/27 06:41:06;;;;;;;8.77;7.87;;;;;;;;;;5094701;28;20483;-59
2021/07/27 06:43:35;;;;;;;8.57;7.70;;;;;;;;;;5094787;28;20443;-58
2021/07/27 06:46:02;;;;;;;7.63;6.93;;;;;;;;;;5094355;28;21043;-58
2021/07/27 06:48:29;;;;;;;9.57;7.30;;;;;;;;;;5094524;28;20524;-57
2021/07/27 06:50:57;;;;;;;8.97;8.17;;;;;;;;;;5095003;28;20457;-57
2021/07/27 06:53:26;;;;;;;8.77;7.87;;;;;;;;;;5095160;28;20806;-58
2021/07/27 06:55:53;;;;;;;8.97;8.17;;;;;;;;;;5095396;28;20462;-58
2021/07/27 06:58:20;;;;;;;8.60;7.70;;;;;;;;;;5094907;28;20514;-57
2021/07/27 07:00:49;;;;;;;9.03;8.23;;;;;;;;;;5095068;28;20452;-58
2021/07/27 07:03:16;;;;;;;8.60;7.90;;;;;;;;;;5094782;28;20445;-58
2021/07/27 07:05:43;;;;;;;9.63;8.70;;;;;;;;;;5094905;28;20525;-57
2021/07/27 07:08:11;;;;;;;7.90;7.20;;;;;;;;;;5093840;28;20527;-58
2021/07/27 07:10:38;;;;;;;8.90;8.00;;;;;;;;;;5094566;28;20449;-58
2021/07/27 07:13:05;;;;;;;8.57;7.67;;;;;;;;;;5094165;28;20464;-58
2021/07/27 07:15:32;;;;;;;8.23;7.43;;;;;;;;;;5093816;28;20471;-58
2021/07/27 07:18:01;;;;;;;9.80;7.90;;;;;;;;;;5093916;28;20455;-58
2021/07/27 07:20:29;;;;;;;7.40;6.80;;;;;;;;;;5094055;28;20938;-57
2021/07/27 07:22:56;;;;;;;8.07;7.17;;;;;;;;;;5094241;28;20444;-58
2021/07/27 07:25:23;;;;;;;9.47;8.30;;;;;;;;;;5095181;28;20468;-58
2021/07/27 07:27:51;;;;;;;8.40;7.60;;;;;;;;;;5093412;28;20976;-58
2021/07/27 07:30:18;;;;;;;8.10;7.40;;;;;;;;;;5093342;28;20445;-59
2021/07/27 07:32:45;;;;;;;8.40;7.60;;;;;;;;;;5093648;28;20929;-58
2021/07/27 07:35:15;;;;;;;8.43;7.73;;;;;;;;;;5094294;28;20520;-57
2021/07/27 07:37:42;;;;;;;8.53;7.73;;;;;;;;;;5094183;28;20451;-57
2021/07/27 07:40:10;;;;;;;9.53;8.70;;;;;;;;;;5093343;28;20531;-56
2021/07/27 07:42:38;;;;;;;9.97;8.97;;;;;;;;;;5093111;28;20445;-57
2021/07/27 07:45:06;;;;;;;9.63;8.83;;;;;;;;;;5093635;28;20520;-58
2021/07/27 07:47:33;;;;;;;8.00;7.27;;;;;;;;;;5093363;28;20534;-58
2021/07/27 07:50:00;;;;;;;9.07;8.27;;;;;;;;;;5093383;28;20791;-57
2021/07/27 07:52:29;;;;;;;8.53;7.83;;;;;;;;;;5093923;28;20442;-58
2021/07/27 07:54:56;;;;;;;9.47;8.67;;;;;;;;;;5093704;28;20468;-56
2021/07/27 07:57:26;;;;;;;10.80;9.70;;;;;;;;;;5093213;28;20940;-57
2021/07/27 07:59:53;;;;;;;9.83;8.93;;;;;;;;;;5094019;28;20474;-58
2021/07/27 08:02:20;;;;;;;10.23;9.33;;;;;;;;;;5093807;28;20445;-59
2021/07/27 08:04:48;;;;;;;9.67;8.47;;;;;;;;;;5093851;28;20467;-59
2021/07/27 08:07:15;;;;;;;9.70;8.80;;;;;;;;;;5093368;28;20820;-58
2021/07/27 08:09:43;;;;;;;9.67;8.70;;;;;;;;;;5093343;28;20508;-58
2021/07/27 08:12:11;;;;;;;9.10;8.30;;;;;;;;;;5093903;28;20446;-58
2021/07/27 08:14:38;;;;;;;8.60;8.00;;;;;;;;;;5093238;28;20463;-56
2021/07/27 08:17:05;;;;;;;9.97;9.13;;;;;;;;;;5093909;28;20459;-58
2021/07/27 08:19:32;;;;;;;9.10;8.40;;;;;;;;;;5093885;28;20454;-59
2021/07/27 08:22:00;;;;;;;9.50;8.70;;;;;;;;;;5093131;28;20447;-59
2021/07/27 08:24:28;;;;;;;9.17;8.37;;;;;;;;;;5093598;28;20468;-58
2021/07/27 08:26:56;;;;;;;8.57;7.87;;;;;;;;;;5094743;28;20520;-57
2021/07/27 08:29:23;;;;;;;10.20;8.67;;;;;;;;;;5093538;28;21048;-58
2021/07/27 08:31:51;;;;;;;10.23;8.37;;;;;;;;;;5093062;28;20492;-58
2021/07/27 08:34:18;;;;;;;13.40;8.97;;;;;;;;;;5093276;28;20530;-58
2021/07/27 08:36:45;;;;;;;8.90;8.20;;;;;;;;;;5096255;28;20542;-58
2021/07/27 08:39:13;;;;;;;9.17;8.37;;;;;;;;;;5095369;28;20444;-58
2021/07/27 08:41:40;;;;;;;9.90;9.00;;;;;;;;;;5095375;28;20501;-59
2021/07/27 08:44:09;;;;;;;8.90;8.10;;;;;;;;;;5094887;28;20462;-59
2021/07/27 08:46:37;;;;;;;10.37;9.43;;;;;;;;;;5093726;28;20863;-58
2021/07/27 08:49:04;;;;;;;10.27;8.60;;;;;;;;;;5092893;28;20481;-57
2021/07/27 08:51:31;;;;;;;12.00;9.37;;;;;;;;;;5092588;28;20937;-59
2021/07/27 08:53:59;;;;;;;9.53;8.70;;;;;;;;;;5094311;28;20446;-59
2021/07/27 08:56:26;;;;;;;10.40;9.50;;;;;;;;;;5096965;28;20512;-59
2021/07/27 08:58:53;;;;;;;9.60;8.60;;;;;;;;;;5097037;28;20443;-58
2021/07/27 09:01:26;;;;;;;9.47;8.53;;;;;;;;;;5097219;28;20500;-59
2021/07/27 09:03:54;;;;;;;8.83;8.03;;;;;;;;;;5096000;28;20443;-59
2021/07/27 09:06:24;;;;;;;10.10;9.10;;;;;;;;;;5096144;28;20450;-59
2021/07/27 09:08:51;;;;;;;9.40;8.40;;;;;;;;;;5096282;28;20501;-58
2021/07/27 09:11:18;;;;;;;12.47;9.70;;;;;;;;;;5096564;28;20492;-57
2021/07/27 09:13:56;;;;;;;10.83;9.10;;;;;;;;;;5095812;28;20449;-60
2021/07/27 09:16:23;;;;;;;12.03;9.10;;;;;;;;;;5096031;28;20445;-58
2021/07/27 09:19:00;;;;;;;10.57;9.57;;;;;;;;;;5096532;28;20448;-60
2021/07/27 09:21:28;;;;;;;10.67;9.77;;;;;;;;;;5096162;28;20868;-60
2021/07/27 09:23:55;;;;;;;9.90;9.00;;;;;;;;;;5095832;28;20509;-57
2021/07/27 09:26:22;;;;;;;9.50;8.20;;;;;;;;;;5096100;28;20470;-58
2021/07/27 09:28:50;;;;;;;8.60;7.73;;;;;;;;;;5096210;28;20553;-58
2021/07/27 09:31:27;;;;;;;8.87;8.00;;;;;;;;;;5096137;28;20561;-58
2021/07/27 09:33:54;;;;;;;8.57;7.80;;;;;;;;;;5096199;28;20522;-59
2021/07/27 09:36:26;;;;;;;8.83;7.90;;;;;;;;;;5096660;28;20534;-59
2021/07/27 09:39:01;;;;;;;9.40;8.50;;;;;;;;;;5096320;28;20507;-58
2021/07/27 09:41:29;;;;;;;8.20;7.40;;;;;;;;;;5097275;28;20541;-57
2021/07/27 09:43:57;;;;;;;8.50;7.80;;;;;;;;;;5096274;28;20535;-59
2021/07/27 09:46:25;;;;;;;8.17;7.47;;;;;;;;;;5096742;28;20527;-59
2021/07/27 09:48:53;;;;;;;8.47;7.60;;;;;;;;;;5096435;28;20907;-59
2021/07/27 09:51:20;;;;;;;7.50;6.90;;;;;;;;;;5096908;28;20849;-58
2021/07/27 09:53:49;;;;;;;7.77;7.07;;;;;;;;;;5095932;28;20504;-59
2021/07/27 09:56:17;;;;;;;8.23;7.43;;;;;;;;;;5095555;28;20454;-59
2021/07/27 09:58:44;;;;;;;8.17;7.00;;;;;;;;;;5095615;28;20474;-59
2021/07/27 10:01:13;;;;;;;7.37;6.70;;;;;;;;;;5096089;28;20453;-59
2021/07/27 10:03:47;;;;;;;7.97;7.20;;;;;;;;;;5095379;28;20481;-59
2021/07/27 10:06:20;;;;;;;8.37;6.73;;;;;;;;;;5095409;28;20451;-58
2021/07/27 10:08:54;;;;;;;7.93;7.20;;;;;;;;;;5096019;28;20469;-58
2021/07/27 10:11:21;;;;;;;7.90;7.20;;;;;;;;;;5095981;28;20455;-59
2021/07/27 10:13:50;;;;;;;8.00;7.40;;;;;;;;;;5094928;28;20920;-60
2021/07/27 10:16:21;;;;;;;7.80;7.17;;;;;;;;;;5096066;28;20537;-58
2021/07/27 10:18:49;;;;;;;8.50;7.80;;;;;;;;;;5095180;28;20445;-58
2021/07/27 10:21:22;;;;;;;8.30;7.50;;;;;;;;;;5094689;28;20958;-60
2021/07/27 10:23:51;;;;;;;8.20;7.37;;;;;;;;;;5094816;28;20440;-59
2021/07/27 10:26:27;;;;;;;9.10;7.80;;;;;;;;;;5095170;28;20491;-59
2021/07/27 10:28:54;;;;;;;9.60;8.70;;;;;;;;;;5096647;28;20536;-59
2021/07/27 10:31:31;;;;;;;9.53;8.30;;;;;;;;;;5094805;28;20523;-59
2021/07/27 10:33:58;;;;;;;9.47;8.67;;;;;;;;;;5094754;28;20521;-58
2021/07/27 10:36:26;;;;;;;8.40;7.70;;;;;;;;;;5094918;28;20498;-59
2021/07/27 10:39:06;;;;;;;9.03;8.23;;;;;;;;;;5094981;28;20442;-59
2021/07/27 10:41:36;;;;;;;9.10;8.20;;;;;;;;;;5095024;28;20493;-58
2021/07/27 10:44:05;;;;;;;9.33;8.43;;;;;;;;;;5094872;28;20443;-59
2021/07/27 10:46:36;;;;;;;9.53;8.63;;;;;;;;;;5094779;28;20540;-59
2021/07/27 10:49:03;;;;;;;8.70;7.90;;;;;;;;;;5094873;28;20556;-60
2021/07/27 10:51:35;;;;;;;10.17;8.33;;;;;;;;;;5094408;28;20439;-58
2021/07/27 10:54:05;;;;;;;9.10;8.30;;;;;;;;;;5095792;28;20510;-57
2021/07/27 10:56:33;;;;;;;9.30;8.60;;;;;;;;;;5106467;28;20439;-58
2021/07/27 10:59:00;;;;;;;9.87;8.90;;;;;;;;;;5109115;28;20450;-60
2021/07/27 11:01:31;;;;;;;9.17;8.27;;;;;;;;;;5107311;28;20514;-58
2021/07/27 11:04:11;;;;;;;9.53;8.53;;;;;;;;;;5105096;28;20494;-58
2021/07/27 11:06:39;;;;;;;8.50;7.70;;;;;;;;;;5096335;28;20833;-58
2021/07/27 11:09:11;;;;;;;9.90;8.90;;;;;;;;;;5096342;28;20566;-57
2021/07/27 11:11:45;;;;;;;10.10;7.90;;;;;;;;;;5095152;28;20481;-58
2021/07/27 11:14:19;;;;;;;9.90;8.90;;;;;;;;;;5094696;28;20551;-58
2021/07/27 11:16:46;;;;;;;10.30;9.33;;;;;;;;;;5094811;28;20524;-58
2021/07/27 11:19:24;;;;;;;13.57;8.43;;;;;;;;;;5095882;28;20440;-59
2021/07/27 11:21:51;;;;;;;10.40;9.47;;;;;;;;;;5096200;28;20966;-59
2021/07/27 11:24:20;;;;;;;8.67;7.87;;;;;;;;;;5094985;28;20466;-60
2021/07/27 11:26:51;;;;;;;9.80;8.90;;;;;;;;;;5095448;28;20863;-59
2021/07/27 11:29:18;;;;;;;9.77;8.93;;;;;;;;;;5095224;28;20883;-58
2021/07/27 11:31:46;;;;;;;11.07;10.00;;;;;;;;;;5094220;28;20453;-60
2021/07/27 11:34:13;;;;;;;10.33;9.10;;;;;;;;;;5094963;28;20461;-58
2021/07/27 11:36:51;;;;;;;10.30;9.30;;;;;;;;;;5094478;28;20490;-59
2021/07/27 11:39:20;;;;;;;9.73;8.83;;;;;;;;;;5093849;28;20884;-59
2021/07/27 11:41:58;;;;;;;10.53;9.53;;;;;;;;;;5093768;28;20437;-58
2021/07/27 11:44:25;;;;;;;18.90;13.30;;;;;;;;;;5094961;28;20468;-61
2021/07/27 11:46:53;;;;;;;10.47;9.47;;;;;;;;;;5094359;28;20537;-59
2021/07/27 11:49:20;;;;;;;10.13;9.20;;;;;;;;;;5094217;28;20480;-58
2021/07/27 11:51:47;;;;;;;9.77;8.87;;;;;;;;;;5094150;28;20450;-58
2021/07/27 11:54:26;;;;;;;10.40;9.40;;;;;;;;;;5093626;28;20881;-58
2021/07/27 11:56:53;;;;;;;9.80;8.97;;;;;;;;;;5093787;28;20466;-58
2021/07/27 11:59:27;;;;;;;9.93;9.13;;;;;;;;;;5093955;28;20443;-59
2021/07/27 12:01:54;;;;;;;9.83;8.70;;;;;;;;;;5093855;28;20499;-59
2021/07/27 12:04:21;;;;;;;10.60;8.90;;;;;;;;;;5093204;28;20455;-58
2021/07/27 12:06:49;;;;;;;9.80;9.00;;;;;;;;;;5094546;28;20989;-59
2021/07/27 12:09:17;;;;;;;9.40;8.60;;;;;;;;;;5094044;28;20487;-59
2021/07/27 12:11:45;;;;;;;10.23;8.30;;;;;;;;;;5093962;28;20487;-59
2021/07/27 12:14:12;;;;;;;9.30;8.50;;;;;;;;;;5094347;28;20577;-59
2021/07/27 12:16:40;;;;;;;9.30;8.53;;;;;;;;;;5095738;28;20449;-58
2021/07/27 12:19:09;;;;;;;8.83;8.03;;;;;;;;;;5096756;28;20444;-58
2021/07/27 12:21:36;;;;;;;9.00;8.30;;;;;;;;;;5094744;28;20529;-58
2021/07/27 12:24:04;;;;;;;8.87;8.00;;;;;;;;;;5093671;28;20449;-59
2021/07/27 12:26:34;;;;;;;8.27;7.57;;;;;;;;;;5093694;28;20455;-60
2021/07/27 12:29:03;;;;;;;8.77;7.90;;;;;;;;;;5096129;28;20566;-58
2021/07/27 12:31:30;;;;;;;8.97;8.10;;;;;;;;;;5097968;28;20502;-59
2021/07/27 12:33:57;;;;;;;8.67;7.83;;;;;;;;;;5097861;28;20441;-59
2021/07/27 12:36:25;;;;;;;8.83;8.03;;;;;;;;;;5097109;28;20443;-59
2021/07/27 12:38:52;;;;;;;8.00;7.27;;;;;;;;;;5096833;28;20986;-60
2021/07/27 12:41:19;;;;;;;8.10;7.40;;;;;;;;;;5097367;28;20536;-59
2021/07/27 12:43:47;;;;;;;8.50;7.80;;;;;;;;;;5096557;28;20971;-60
2021/07/27 12:46:17;;;;;;;9.07;8.07;;;;;;;;;;5097070;28;20503;-60
2021/07/27 12:48:44;;;;;;;8.30;7.60;;;;;;;;;;5097229;28;20554;-58
2021/07/27 12:51:16;;;;;;;8.93;8.23;;;;;;;;;;5097481;28;20955;-58
2021/07/27 12:53:43;;;;;;;7.80;7.20;;;;;;;;;;5097616;28;20487;-59
2021/07/27 12:56:10;;;;;;;8.97;7.60;;;;;;;;;;5097375;28;20456;-61
2021/07/27 12:58:37;;;;;;;8.53;7.83;;;;;;;;;;5097119;28;20978;-60
2021/07/27 13:01:05;;;;;;;7.53;6.93;;;;;;;;;;5097259;28;20493;-62
2021/07/27 13:03:33;;;;;;;7.80;7.20;;;;;;;;;;5097744;28;20449;-60
2021/07/27 13:06:01;;;;;;;7.67;7.03;;;;;;;;;;5097065;28;20537;-59
2021/07/27 13:08:28;;;;;;;8.57;6.90;;;;;;;;;;5097534;28;20483;-59
2021/07/27 13:10:55;;;;;;;7.53;6.93;;;;;;;;;;5096969;28;20490;-58
2021/07/27 13:13:22;;;;;;;9.60;8.70;;;;;;;;;;5096416;28;20456;-60
2021/07/27 13:15:49;;;;;;;8.93;8.03;;;;;;;;;;5096006;28;21057;-59
2021/07/27 13:18:17;;;;;;;8.83;8.03;;;;;;;;;;5096530;28;20447;-58
2021/07/27 13:20:45;;;;;;;8.90;8.10;;;;;;;;;;5096325;28;20443;-60
2021/07/27 13:23:13;;;;;;;10.60;9.10;;;;;;;;;;5096231;28;20442;-59
2021/07/27 13:25:40;;;;;;;9.43;8.53;;;;;;;;;;5087020;22;20514;-56
2021/07/27 13:28:07;;;;;;;10.33;9.43;;;;;;;;;;5035407;28;20449;-56
2021/07/27 13:30:35;;;;;;;11.83;8.70;;;;;;;;;;5035443;28;20473;-57
2021/07/27 13:33:02;;;;;;;9.60;8.70;;;;;;;;;;5035322;28;20452;-56
2021/07/27 13:35:29;;;;;;;9.40;8.50;;;;;;;;;;5035003;28;20979;-57
2021/07/27 13:37:59;;;;;;;9.83;8.57;;;;;;;;;;5035002;28;20444;-56
2021/07/27 13:40:26;;;;;;;9.30;8.37;;;;;;;;;;5034475;28;20443;-56
2021/07/27 13:42:54;;;;;;;9.30;8.23;;;;;;;;;;5035112;28;20943;-56
2021/07/27 13:45:21;;;;;;;10.53;9.53;;;;;;;;;;5035419;28;20466;-56
2021/07/27 13:47:49;;;;;;;8.80;7.90;;;;;;;;;;5035336;28;20501;-56
2021/07/27 13:50:16;;;;;;;8.27;7.47;;;;;;;;;;5034536;28;20889;-56
2021/07/27 13:52:43;;;;;;;11.67;8.03;;;;;;;;;;5035383;28;20451;-57
2021/07/27 13:55:12;;;;;;;8.57;7.77;;;;;;;;;;5035427;28;20633;-55
2021/07/27 13:57:40;;;;;;;10.10;8.17;;;;;;;;;;5035893;28;20450;-57
2021/07/27 14:00:08;;;;;;;11.90;8.30;;;;;;;;;;5035251;28;20995;-57
2021/07/27 14:02:35;;;;;;;9.63;7.70;;;;;;;;;;5035048;28;20447;-57
2021/07/27 14:05:02;;;;;;;9.10;8.23;;;;;;;;;;5035170;28;20466;-56
2021/07/27 14:07:32;;;;;;;8.07;7.30;;;;;;;;;;5034944;28;20797;-56
2021/07/27 14:09:59;;;;;;;8.57;7.73;;;;;;;;;;5034476;28;20478;-56
2021/07/27 14:12:27;;;;;;;9.57;8.57;;;;;;;;;;5034633;28;20542;-56
2021/07/27 14:14:55;;;;;;;12.20;11.00;;;;;;;;;;5034749;28;20467;-57
2021/07/27 14:17:22;;;;;;;11.13;10.07;;;;;;;;;;5034936;28;20454;-56
2021/07/27 14:19:49;;;;;;;11.17;10.07;;;;;;;;;;5035033;28;20448;-55
2021/07/27 14:22:17;;;;;;;10.40;9.40;;;;;;;;;;5034516;28;20503;-55
2021/07/27 14:24:44;;;;;;;10.70;9.70;;;;;;;;;;5034240;28;20484;-57
2021/07/27 14:27:11;;;;;;;9.00;8.20;;;;;;;;;;5034622;28;20492;-56
2021/07/27 14:29:40;;;;;;;9.07;8.20;;;;;;;;;;5034122;28;20914;-55
2021/07/27 14:32:08;;;;;;;9.53;8.50;;;;;;;;;;5034051;28;20952;-56
2021/07/27 14:34:35;;;;;;;9.77;8.87;;;;;;;;;;5034680;28;20507;-56
2021/07/27 14:37:05;;;;;;;9.63;8.83;;;;;;;;;;5034476;28;20518;-56
2021/07/27 14:39:32;;;;;;;8.60;7.90;;;;;;;;;;5034280;28;20502;-56
2021/07/27 14:41:59;;;;;;;9.77;8.87;;;;;;;;;;5034943;28;20453;-56
2021/07/27 14:44:26;;;;;;;10.27;9.37;;;;;;;;;;5033957;28;20867;-56
2021/07/27 14:46:55;;;;;;;9.27;8.27;;;;;;;;;;5034637;28;20517;-57
2021/07/27 14:49:22;;;;;;;9.63;7.83;;;;;;;;;;5033898;28;20545;-55
2021/07/27 14:51:50;;;;;;;9.57;8.77;;;;;;;;;;5033706;28;20459;-57
2021/07/27 14:54:17;;;;;;;9.27;8.47;;;;;;;;;;5034183;28;21014;-56
2021/07/27 14:56:44;;;;;;;12.93;8.67;;;;;;;;;;5034194;28;20495;-56
2021/07/27 14:59:12;;;;;;;8.90;8.00;;;;;;;;;;5034667;28;20450;-56
2021/07/27 15:01:39;;;;;;;9.30;8.40;;;;;;;;;;5035353;28;20472;-56
2021/07/27 15:04:08;;;;;;;9.10;8.20;;;;;;;;;;5034511;28;20455;-57
2021/07/27 15:06:35;;;;;;;7.70;7.00;;;;;;;;;;5034760;28;20463;-57
2021/07/27 15:09:03;;;;;;;8.87;7.97;;;;;;;;;;5034164;28;20447;-56